Terminal Aerodrome Forecast
Issued by NWS Boston, MA

Home | Current Version | Previous Version | Text Only | Print | Product List | Glossary On
Versions: 1 2 3 4 5 6 7 8 9 10 11 12 13 14 15 16 17 18 19 20 21 22 23 24
000
FTUS41 KBOX 201727
TAFORH
TAF
KORH 201727Z 2018/2118 02010G21KT 2SM -SHRA BR OVC004
     FM202300 02010G20KT 6SM BR OVC008
     FM210500 01009G21KT P6SM OVC008
     FM211400 02013G25KT P6SM OVC020
     FM211600 02013G28KT P6SM BKN070=

USA.gov is the U.S. government's official web portal to all federal, state and local government web resources and services.